Haverford, Pennsylvania
Current Conditions -  °F | °C
As of 10:15 AM on Wednesday 26 Nov 2014 (Local Time) from KLOM Reporting Station
Overcast Overcast  
Wind Chill: 34°   Ceiling: 400
Heat Index: 34°   Visibility: 1.7mi
Dew Point: 34°   Wind: 3mph
Humidity: 100%   Direction: 50°NE
Pressure: 30.07"   Gusts: NA
Location:  40.01°N, 75.29°W
Report Text: KLOM 261515Z AUTO 05003KT 1 3/4SM OVC004 01/01 A3007 RMK AO1 P0002
Loading
Personal Weather Stations






























Interactive Weather Map New forecast layout! Learn more

10-Day Weather Forecast

Advertisements
Track Severe Weather on mobile